createdAt,value
2022-10-22T00:00:08.857Z,94467.50
2022-10-22T00:02:35.789Z,94468.75
2022-10-22T00:05:02.584Z,94468.97
2022-10-22T00:07:29.490Z,94472.13
2022-10-22T00:09:56.243Z,94463.66
2022-10-22T00:12:23.048Z,94470.69
2022-10-22T00:14:50.047Z,94477.53
2022-10-22T00:17:16.959Z,94467.13
2022-10-22T00:19:43.742Z,94465.59
2022-10-22T00:22:11.517Z,94484.13
2022-10-22T00:24:39.519Z,94475.56
2022-10-22T00:27:08.369Z,94469.31
2022-10-22T00:29:35.391Z,94468.63
2022-10-22T00:32:02.723Z,94474.53
2022-10-22T00:34:29.487Z,94462.91
2022-10-22T00:36:56.200Z,94455.72
2022-10-22T00:39:25.262Z,94444.81
2022-10-22T00:41:53.848Z,94442.63
2022-10-22T00:44:57.948Z,94449.81
2022-10-22T00:47:26.009Z,94445.63
2022-10-22T00:49:53.249Z,94451.75
2022-10-22T00:52:20.231Z,94451.25
2022-10-22T00:54:47.082Z,94468.81
2022-10-22T00:57:14.780Z,94458.38
2022-10-22T00:59:41.603Z,94451.75
2022-10-22T01:02:08.483Z,94455.34
2022-10-22T01:04:35.190Z,94445.38
2022-10-22T01:07:02.167Z,94435.66
2022-10-22T01:10:04.210Z,94429.50
2022-10-22T01:12:55.355Z,94420.13
2022-10-22T01:15:25.483Z,94419.56
2022-10-22T01:18:05.794Z,94410.03
2022-10-22T01:20:44.771Z,94409.22
2022-10-22T01:23:33.436Z,94404.94
2022-10-22T01:26:18.503Z,94411.28
2022-10-22T01:29:16.218Z,94413.97
2022-10-22T01:31:51.962Z,94408.59
2022-10-22T01:34:19.248Z,94403.50
2022-10-22T01:36:46.820Z,94393.09
2022-10-22T01:39:15.541Z,94387.78
2022-10-22T01:41:45.524Z,94390.78
2022-10-22T01:44:26.815Z,94388.47
2022-10-22T01:47:07.797Z,94375.00
2022-10-22T01:49:43.561Z,94384.59
2022-10-22T01:52:39.609Z,94382.53
2022-10-22T01:55:28.855Z,94393.63
2022-10-22T01:58:04.178Z,94389.78
2022-10-22T02:00:31.212Z,94396.53
2022-10-22T02:03:04.426Z,94393.06
2022-10-22T02:05:43.358Z,94399.78
2022-10-22T02:08:12.602Z,94397.25
2022-10-22T02:10:40.953Z,94390.13
2022-10-22T02:13:10.700Z,94401.41
2022-10-22T02:15:38.668Z,94394.34
2022-10-22T02:18:06.691Z,94399.06
2022-10-22T02:20:36.091Z,94394.22
2022-10-22T02:23:03.659Z,94390.41
2022-10-22T02:25:37.208Z,94388.19
2022-10-22T02:28:16.521Z,94385.66
2022-10-22T02:30:47.654Z,94374.38
2022-10-22T02:33:14.313Z,94379.91
2022-10-22T02:35:42.056Z,94387.09
2022-10-22T02:38:09.631Z,94401.97
2022-10-22T02:40:36.598Z,94403.44
2022-10-22T02:43:06.924Z,94407.31
2022-10-22T02:45:34.740Z,94411.94
2022-10-22T02:48:01.624Z,94415.31
2022-10-22T02:50:28.420Z,94409.34
2022-10-22T02:52:55.207Z,94408.78
2022-10-22T02:55:21.915Z,94410.75
2022-10-22T02:57:48.714Z,94406.09
2022-10-22T03:00:16.175Z,94405.50
2022-10-22T03:02:42.912Z,94400.63
2022-10-22T03:05:10.321Z,94408.88
2022-10-22T03:07:37.101Z,94405.75
2022-10-22T03:10:04.462Z,94398.81
2022-10-22T03:12:31.598Z,94408.44
2022-10-22T03:14:58.401Z,94403.34
2022-10-22T03:17:25.127Z,94416.28
2022-10-22T03:19:51.821Z,94410.09
2022-10-22T03:22:25.257Z,94402.47
2022-10-22T03:24:54.873Z,94404.53
2022-10-22T03:27:22.421Z,94400.34
2022-10-22T03:29:50.879Z,94385.56
2022-10-22T03:32:17.609Z,94383.47
2022-10-22T03:34:44.496Z,94396.56
2022-10-22T03:37:11.695Z,94394.81
2022-10-22T03:39:38.739Z,94399.00
2022-10-22T03:42:07.071Z,94391.22
2022-10-22T03:44:36.100Z,94393.59
2022-10-22T03:47:03.013Z,94385.22
2022-10-22T03:49:29.847Z,94377.69
2022-10-22T03:51:56.686Z,94373.47
2022-10-22T03:54:23.388Z,94376.75
2022-10-22T03:56:50.125Z,94388.31
2022-10-22T03:59:16.886Z,94404.69
2022-10-22T04:01:43.653Z,94401.72
2022-10-22T04:04:10.445Z,94398.56
2022-10-22T04:06:37.252Z,94406.91
2022-10-22T04:09:04.169Z,94394.66
2022-10-22T04:11:31.148Z,94380.31
2022-10-22T04:13:57.957Z,94370.44
2022-10-22T04:16:27.394Z,94377.66
2022-10-22T04:18:57.387Z,94375.94
2022-10-22T04:21:24.604Z,94373.19
2022-10-22T04:23:52.762Z,94368.63
2022-10-22T04:26:20.008Z,94369.59
2022-10-22T04:28:48.177Z,94368.91
2022-10-22T04:31:17.367Z,94367.34
2022-10-22T04:33:44.119Z,94358.88
2022-10-22T04:36:16.532Z,94363.78
2022-10-22T04:38:44.819Z,94366.47
2022-10-22T04:41:20.572Z,94373.66
2022-10-22T04:43:47.870Z,94379.44
2022-10-22T04:46:16.336Z,94374.00
2022-10-22T04:48:44.348Z,94371.25
2022-10-22T04:51:13.364Z,94372.97
2022-10-22T04:53:42.938Z,94369.63
2022-10-22T04:56:12.109Z,94372.44
2022-10-22T04:58:39.133Z,94370.00
2022-10-22T05:01:13.348Z,94382.63
2022-10-22T05:03:40.320Z,94389.84
2022-10-22T05:06:07.737Z,94382.66
2022-10-22T05:08:34.807Z,94397.28
2022-10-22T05:11:01.651Z,94393.81
2022-10-22T05:13:28.401Z,94387.44
2022-10-22T05:15:55.154Z,94399.72
2022-10-22T05:18:22.673Z,94411.31
2022-10-22T05:20:49.543Z,94417.81
2022-10-22T05:23:16.344Z,94413.63
2022-10-22T05:25:43.047Z,94408.63
2022-10-22T05:28:09.800Z,94412.13
2022-10-22T05:30:36.568Z,94401.56
2022-10-22T05:33:03.351Z,94395.28
2022-10-22T05:35:30.147Z,94396.06
2022-10-22T05:40:31.047Z,94420.09
2022-10-22T05:42:59.127Z,94426.25
2022-10-22T05:45:25.933Z,94421.97
2022-10-22T05:47:52.630Z,94419.28
2022-10-22T05:50:19.339Z,94416.84
2022-10-22T05:52:46.088Z,94409.53
2022-10-22T05:55:12.792Z,94410.78
2022-10-22T05:57:40.724Z,94403.44
2022-10-22T06:00:10.560Z,94409.47
2022-10-22T06:02:39.898Z,94410.97
2022-10-22T06:05:07.212Z,94410.72
2022-10-22T06:07:34.092Z,94410.09
2022-10-22T06:10:01.163Z,94418.81
2022-10-22T06:12:28.016Z,94418.06
2022-10-22T06:14:54.808Z,94414.50
2022-10-22T06:17:21.544Z,94410.72
2022-10-22T06:19:48.231Z,94413.22
2022-10-22T06:22:14.965Z,94422.75
2022-10-22T06:24:45.013Z,94417.47
2022-10-22T06:27:12.110Z,94421.09
2022-10-22T06:29:38.847Z,94418.59
2022-10-22T06:32:05.741Z,94426.66
2022-10-22T06:34:32.633Z,94422.34
2022-10-22T06:36:59.562Z,94425.78
2022-10-22T06:39:26.395Z,94433.88
2022-10-22T06:41:53.155Z,94435.41
2022-10-22T06:44:20.554Z,94434.72
2022-10-22T06:46:52.057Z,94433.25
2022-10-22T06:49:20.596Z,94427.97
2022-10-22T06:51:51.816Z,94427.00
2022-10-22T06:54:18.808Z,94422.34
2022-10-22T06:56:45.630Z,94424.75
2022-10-22T06:59:12.367Z,94421.41
2022-10-22T07:01:39.422Z,94419.28
2022-10-22T07:04:06.774Z,94422.53
2022-10-22T07:06:33.584Z,94436.09
2022-10-22T07:09:00.515Z,94428.78
2022-10-22T07:11:30.286Z,94433.31
2022-10-22T07:13:58.865Z,94428.91
2022-10-22T07:16:29.676Z,94421.03
2022-10-22T07:19:00.501Z,94420.38
2022-10-22T07:21:27.599Z,94411.63
2022-10-22T07:23:54.654Z,94403.97
2022-10-22T07:26:21.673Z,94416.16
2022-10-22T07:28:48.611Z,94416.88
2022-10-22T07:31:16.210Z,94425.00
2022-10-22T07:33:43.165Z,94429.69
2022-10-22T07:36:12.593Z,94415.41
2022-10-22T07:38:39.492Z,94411.88
2022-10-22T07:41:06.275Z,94415.44
2022-10-22T07:43:33.038Z,94414.59
2022-10-22T07:46:00.432Z,94407.81
2022-10-22T07:48:27.404Z,94403.94
2022-10-22T07:50:54.218Z,94398.50
2022-10-22T07:53:21.671Z,94392.97
2022-10-22T07:55:50.102Z,94388.47
2022-10-22T07:58:18.389Z,94383.47
2022-10-22T08:00:45.151Z,94382.00
2022-10-22T08:03:12.751Z,94386.13
2022-10-22T08:05:40.025Z,94390.66
2022-10-22T08:08:07.391Z,94389.81
2022-10-22T08:10:35.093Z,94394.47
2022-10-22T08:13:02.016Z,94405.13
2022-10-22T08:15:28.907Z,94404.53
2022-10-22T08:17:55.696Z,94392.44
2022-10-22T08:20:22.566Z,94392.84
2022-10-22T08:22:49.322Z,94384.81
2022-10-22T08:25:18.068Z,94389.69
2022-10-22T08:27:45.767Z,94378.94
2022-10-22T08:30:13.352Z,94371.78
2022-10-22T08:32:40.622Z,94369.66
2022-10-22T08:35:07.808Z,94369.38
2022-10-22T08:37:34.543Z,94368.06
2022-10-22T08:40:01.325Z,94368.59
2022-10-22T08:42:52.867Z,94375.19
2022-10-22T08:45:41.525Z,94374.22
2022-10-22T08:48:43.691Z,94379.69
2022-10-22T08:51:18.471Z,94378.56
2022-10-22T08:54:06.268Z,94377.47
2022-10-22T08:56:35.821Z,94368.94
2022-10-22T08:59:14.904Z,94370.41
2022-10-22T09:01:49.648Z,94375.50
2022-10-22T09:04:25.596Z,94381.34
2022-10-22T09:06:54.459Z,94372.47
2022-10-22T09:09:21.688Z,94373.88
2022-10-22T09:11:50.564Z,94369.66
2022-10-22T09:14:25.230Z,94367.78
2022-10-22T09:17:13.896Z,94357.66
2022-10-22T09:19:46.611Z,94358.03
2022-10-22T09:22:43.479Z,94361.00
2022-10-22T09:25:26.562Z,94352.69
2022-10-22T09:27:58.256Z,94355.13
2022-10-22T09:30:28.505Z,94358.63
2022-10-22T09:33:01.240Z,94350.25
2022-10-22T09:35:28.216Z,94340.25
2022-10-22T09:37:56.554Z,94340.25
2022-10-22T09:40:23.829Z,94341.44
2022-10-22T09:42:51.419Z,94343.41
2022-10-22T09:45:20.587Z,94332.19
2022-10-22T09:48:01.428Z,94334.50
2022-10-22T09:50:39.761Z,94318.56
2022-10-22T09:53:26.533Z,94314.84
2022-10-22T09:58:28.739Z,94302.53
2022-10-22T10:01:00.819Z,94305.16
2022-10-22T10:03:31.412Z,94316.50
2022-10-22T10:06:03.064Z,94325.00
2022-10-22T10:08:32.977Z,94319.44
2022-10-22T10:11:08.777Z,94313.03
2022-10-22T10:14:04.172Z,94298.66
2022-10-22T10:16:58.496Z,94299.09
2022-10-22T10:19:37.584Z,94295.81
2022-10-22T10:22:15.419Z,94299.34
2022-10-22T10:25:02.055Z,94300.63
2022-10-22T10:27:36.756Z,94298.59
2022-10-22T10:30:03.468Z,94300.75
2022-10-22T10:33:01.052Z,94301.06
2022-10-22T10:35:35.010Z,94291.34
2022-10-22T10:38:29.862Z,94283.31
2022-10-22T10:41:04.656Z,94274.22
2022-10-22T10:43:44.585Z,94280.63
2022-10-22T10:46:29.538Z,94268.84
2022-10-22T10:49:20.124Z,94263.53
2022-10-22T10:52:21.318Z,94253.75
2022-10-22T10:55:16.248Z,94252.59
2022-10-22T10:58:04.264Z,94251.66
2022-10-22T11:00:36.719Z,94242.88
2022-10-22T11:03:16.181Z,94226.66
2022-10-22T11:05:55.712Z,94228.78
2022-10-22T11:08:27.207Z,94224.41
2022-10-22T11:11:02.020Z,94214.97
2022-10-22T11:13:59.602Z,94217.72
2022-10-22T11:16:56.927Z,94204.28
2022-10-22T11:19:57.826Z,94208.94
2022-10-22T11:22:44.428Z,94203.56
2022-10-22T11:25:32.328Z,94200.22
2022-10-22T11:28:11.308Z,94198.88
2022-10-22T11:30:39.182Z,94187.28
2022-10-22T11:33:10.662Z,94181.13
2022-10-22T11:35:45.295Z,94177.97
2022-10-22T11:38:15.525Z,94172.72
2022-10-22T11:40:48.964Z,94168.28
2022-10-22T11:43:35.617Z,94169.31
2022-10-22T11:46:09.834Z,94173.47
2022-10-22T11:48:38.513Z,94172.66
2022-10-22T11:51:37.834Z,94168.13
2022-10-22T11:54:29.777Z,94161.59
2022-10-22T11:57:14.732Z,94172.09
2022-10-22T11:59:47.518Z,94169.97
2022-10-22T12:02:43.154Z,94163.44
2022-10-22T12:05:22.397Z,94157.25
2022-10-22T12:07:52.059Z,94159.28
2022-10-22T12:10:20.918Z,94152.09
2022-10-22T12:12:58.772Z,94156.50
2022-10-22T12:15:28.999Z,94150.75
2022-10-22T12:18:05.214Z,94146.75
2022-10-22T12:20:32.182Z,94143.13
2022-10-22T12:23:00.117Z,94137.69
2022-10-22T12:25:35.704Z,94133.19
2022-10-22T12:28:02.957Z,94132.81
2022-10-22T12:30:32.320Z,94136.72
2022-10-22T12:33:02.998Z,94135.66
2022-10-22T12:35:35.714Z,94131.06
2022-10-22T12:38:10.935Z,94136.50
2022-10-22T12:40:45.784Z,94141.66
2022-10-22T12:43:18.151Z,94131.53
2022-10-22T12:45:47.194Z,94126.03
2022-10-22T12:48:23.291Z,94124.72
2022-10-22T12:50:53.272Z,94120.84
2022-10-22T12:53:25.393Z,94124.28
2022-10-22T12:55:53.648Z,94114.06
2022-10-22T12:58:23.195Z,94118.72
2022-10-22T13:00:57.404Z,94114.34
2022-10-22T13:03:46.096Z,94110.34
2022-10-22T13:06:12.991Z,94107.53
2022-10-22T13:08:40.452Z,94105.16
2022-10-22T13:11:10.556Z,94101.78
2022-10-22T13:13:37.552Z,94110.00
2022-10-22T13:16:24.312Z,94108.97
2022-10-22T13:18:52.451Z,94107.81
2022-10-22T13:21:33.027Z,94107.94
2022-10-22T13:24:19.690Z,94099.84
2022-10-22T13:26:53.260Z,94093.50
2022-10-22T13:29:21.634Z,94095.97
2022-10-22T13:31:50.280Z,94091.28
2022-10-22T13:34:21.797Z,94088.91
2022-10-22T13:36:49.127Z,94082.53
2022-10-22T13:39:23.919Z,94085.66
2022-10-22T13:41:51.657Z,94085.63
2022-10-22T13:44:21.773Z,94090.84
2022-10-22T13:46:48.626Z,94092.41
2022-10-22T13:49:19.987Z,94086.09
2022-10-22T13:51:47.108Z,94080.91
2022-10-22T13:54:20.671Z,94078.53
2022-10-22T13:56:47.420Z,94083.97
2022-10-22T13:59:15.368Z,94081.44
2022-10-22T14:01:45.406Z,94092.22
2022-10-22T14:04:14.761Z,94085.47
2022-10-22T14:06:41.572Z,94085.16
2022-10-22T14:09:14.106Z,94086.41
2022-10-22T14:11:40.913Z,94090.84
2022-10-22T14:14:09.216Z,94086.41
2022-10-22T14:16:37.331Z,94092.66
2022-10-22T14:19:04.824Z,94090.63
2022-10-22T14:21:35.691Z,94080.16
2022-10-22T14:24:02.503Z,94085.28
2022-10-22T14:26:33.135Z,94076.69
2022-10-22T14:29:15.984Z,94076.34
2022-10-22T14:31:44.515Z,94067.03
2022-10-22T14:34:13.898Z,94068.66
2022-10-22T14:36:43.638Z,94061.41
2022-10-22T14:39:10.801Z,94064.16
2022-10-22T14:41:37.670Z,94060.44
2022-10-22T14:44:04.685Z,94062.94
2022-10-22T14:46:31.479Z,94070.06
2022-10-22T14:48:58.280Z,94074.28
2022-10-22T14:51:25.067Z,94088.94
2022-10-22T14:53:51.870Z,94078.94
2022-10-22T14:56:21.484Z,94085.44
2022-10-22T14:58:48.965Z,94081.22
2022-10-22T15:01:15.705Z,94079.56
2022-10-22T15:03:42.625Z,94089.38
2022-10-22T15:06:09.354Z,94085.91
2022-10-22T15:08:36.255Z,94083.03
2022-10-22T15:11:02.994Z,94081.09
2022-10-22T15:13:30.122Z,94069.06
2022-10-22T15:15:58.141Z,94069.66
2022-10-22T15:18:25.832Z,94075.97
2022-10-22T15:21:00.656Z,94073.25
2022-10-22T15:23:27.821Z,94079.25
2022-10-22T15:25:55.137Z,94085.19
2022-10-22T15:28:22.456Z,94080.44
2022-10-22T15:31:00.106Z,94083.91
2022-10-22T15:33:28.028Z,94086.47
2022-10-22T15:35:55.552Z,94079.81
2022-10-22T15:38:22.658Z,94089.25
2022-10-22T15:40:49.448Z,94082.31
2022-10-22T15:43:16.138Z,94094.88
2022-10-22T15:45:42.856Z,94090.66
2022-10-22T15:48:11.406Z,94083.41
2022-10-22T15:50:40.250Z,94098.69
2022-10-22T15:53:07.087Z,94100.84
2022-10-22T15:55:33.850Z,94105.47
2022-10-22T15:58:03.360Z,94102.66
2022-10-22T16:00:30.982Z,94107.09
2022-10-22T16:02:57.658Z,94103.41
2022-10-22T16:05:24.580Z,94113.34
2022-10-22T16:07:53.168Z,94110.63
2022-10-22T16:10:20.002Z,94126.09
2022-10-22T16:12:46.861Z,94137.09
2022-10-22T16:15:13.704Z,94132.44
2022-10-22T16:17:40.514Z,94142.38
2022-10-22T16:20:07.819Z,94140.63
2022-10-22T16:22:34.743Z,94138.63
2022-10-22T16:25:01.499Z,94128.00
2022-10-22T16:27:28.314Z,94137.44
2022-10-22T16:29:55.211Z,94134.41
2022-10-22T16:32:22.102Z,94127.78
2022-10-22T16:34:48.868Z,94124.31
2022-10-22T16:37:15.644Z,94122.03
2022-10-22T16:39:42.334Z,94121.19
2022-10-22T16:42:09.077Z,94117.91
2022-10-22T16:44:35.763Z,94126.88
2022-10-22T16:47:02.575Z,94125.06
2022-10-22T16:49:29.301Z,94129.63
2022-10-22T16:51:56.031Z,94122.41
2022-10-22T16:54:22.876Z,94119.81
2022-10-22T16:56:49.635Z,94121.13
2022-10-22T16:59:16.409Z,94120.53
2022-10-22T17:01:43.204Z,94117.19
2022-10-22T17:04:10.414Z,94118.81
2022-10-22T17:06:37.276Z,94110.41
2022-10-22T17:09:04.766Z,94101.63
2022-10-22T17:11:36.276Z,94101.72
2022-10-22T17:14:04.978Z,94111.84
2022-10-22T17:16:31.809Z,94105.41
2022-10-22T17:18:58.619Z,94099.78
2022-10-22T17:21:25.515Z,94094.69
2022-10-22T17:23:56.570Z,94091.81
2022-10-22T17:26:24.205Z,94104.94
2022-10-22T17:28:51.052Z,94101.84
2022-10-22T17:31:19.699Z,94109.44
2022-10-22T17:33:47.176Z,94121.56
2022-10-22T17:36:14.388Z,94124.78
2022-10-22T17:38:42.222Z,94112.53
2022-10-22T17:41:13.814Z,94112.84
2022-10-22T17:43:41.565Z,94109.28
2022-10-22T17:46:19.937Z,94106.41
2022-10-22T17:48:55.042Z,94116.91
2022-10-22T17:51:23.440Z,94115.63
2022-10-22T17:53:52.978Z,94111.13
2022-10-22T17:56:22.171Z,94111.63
2022-10-22T17:58:49.375Z,94112.44
2022-10-22T18:01:20.028Z,94116.66
2022-10-22T18:03:47.101Z,94112.16
2022-10-22T18:06:14.584Z,94116.38
2022-10-22T18:08:54.878Z,94118.47
2022-10-22T18:11:23.867Z,94113.28
2022-10-22T18:13:51.873Z,94111.69
2022-10-22T18:16:19.324Z,94117.84
2022-10-22T18:18:47.629Z,94107.84
2022-10-22T18:21:15.529Z,94127.69
2022-10-22T18:23:42.643Z,94131.56
2022-10-22T18:26:09.496Z,94125.09
2022-10-22T18:28:36.683Z,94123.69
2022-10-22T18:31:12.637Z,94130.28
2022-10-22T18:33:40.741Z,94128.38
2022-10-22T18:36:12.332Z,94134.19
2022-10-22T18:38:39.447Z,94132.41
2022-10-22T18:41:07.615Z,94132.91
2022-10-22T18:43:35.459Z,94131.44
2022-10-22T18:46:02.447Z,94125.34
2022-10-22T18:48:29.177Z,94132.91
2022-10-22T18:51:01.797Z,94133.53
2022-10-22T18:53:28.976Z,94131.75
2022-10-22T18:55:55.720Z,94133.38
2022-10-22T18:58:22.563Z,94141.41
2022-10-22T19:00:50.562Z,94152.22
2022-10-22T19:03:17.740Z,94151.59
2022-10-22T19:05:49.438Z,94159.16
2022-10-22T19:08:19.140Z,94159.94
2022-10-22T19:10:47.136Z,94167.53
2022-10-22T19:13:16.223Z,94169.63
2022-10-22T19:15:43.254Z,94166.38
2022-10-22T19:18:10.296Z,94166.53
2022-10-22T19:20:37.129Z,94163.31
2022-10-22T19:23:04.328Z,94176.56
2022-10-22T19:25:31.062Z,94167.69
2022-10-22T19:27:57.820Z,94169.63
2022-10-22T19:30:24.640Z,94167.03
2022-10-22T19:32:51.386Z,94164.94
2022-10-22T19:35:18.176Z,94159.78
2022-10-22T19:37:48.310Z,94174.75
2022-10-22T19:40:15.426Z,94172.63
2022-10-22T19:42:44.374Z,94171.63
2022-10-22T19:45:11.643Z,94158.59
2022-10-22T19:47:38.364Z,94149.34
2022-10-22T19:50:05.772Z,94148.06
2022-10-22T19:52:33.303Z,94147.72
2022-10-22T19:55:00.004Z,94139.50
2022-10-22T19:57:26.720Z,94148.03
2022-10-22T19:59:53.432Z,94148.31
2022-10-22T20:02:20.196Z,94149.88
2022-10-22T20:04:49.989Z,94144.25
2022-10-22T20:07:16.923Z,94147.53
2022-10-22T20:09:43.666Z,94144.47
2022-10-22T20:12:10.370Z,94148.97
2022-10-22T20:14:37.510Z,94151.75
2022-10-22T20:17:04.494Z,94145.44
2022-10-22T20:19:31.363Z,94147.72
2022-10-22T20:24:30.024Z,94145.28
2022-10-22T20:26:56.763Z,94150.91
2022-10-22T20:29:23.474Z,94151.19
2022-10-22T20:31:50.236Z,94151.19
2022-10-22T20:34:17.276Z,94140.59
2022-10-22T20:36:43.991Z,94134.09
2022-10-22T20:39:12.921Z,94144.22
2022-10-22T20:41:40.572Z,94142.72
2022-10-22T20:44:11.559Z,94145.69
2022-10-22T20:46:38.427Z,94143.91
2022-10-22T20:49:08.001Z,94138.25
2022-10-22T20:51:37.953Z,94144.97
2022-10-22T20:54:05.779Z,94142.41
2022-10-22T20:56:32.656Z,94143.06
2022-10-22T20:59:05.689Z,94146.56
2022-10-22T21:01:44.671Z,94153.97
2022-10-22T21:04:11.539Z,94147.75
2022-10-22T21:06:40.225Z,94140.19
2022-10-22T21:09:08.193Z,94152.06
2022-10-22T21:11:36.186Z,94151.63
2022-10-22T21:14:03.573Z,94149.03
2022-10-22T21:16:30.448Z,94158.53
2022-10-22T21:18:57.510Z,94154.84
2022-10-22T21:21:24.196Z,94165.28
2022-10-22T21:23:51.560Z,94171.06
2022-10-22T21:26:19.798Z,94159.69
2022-10-22T21:28:47.204Z,94165.44
2022-10-22T21:31:20.532Z,94150.66
2022-10-22T21:33:49.760Z,94152.28
2022-10-22T21:36:21.616Z,94146.63
2022-10-22T21:38:50.605Z,94136.78
2022-10-22T21:41:18.812Z,94132.44
2022-10-22T21:43:46.116Z,94134.06
2022-10-22T21:46:24.214Z,94122.00
2022-10-22T21:48:59.287Z,94126.81
2022-10-22T21:51:26.104Z,94130.88
2022-10-22T21:53:53.354Z,94129.88
2022-10-22T21:56:28.575Z,94131.34
2022-10-22T21:58:57.472Z,94127.78
2022-10-22T22:01:24.678Z,94129.56
2022-10-22T22:03:52.410Z,94135.03
2022-10-22T22:06:22.027Z,94129.13
2022-10-22T22:08:50.075Z,94149.03
2022-10-22T22:11:19.314Z,94145.19
2022-10-22T22:13:47.260Z,94156.50
2022-10-22T22:16:16.428Z,94157.50
2022-10-22T22:18:43.188Z,94151.41
2022-10-22T22:21:18.387Z,94153.63
2022-10-22T22:23:46.566Z,94152.47
2022-10-22T22:26:15.053Z,94143.75
2022-10-22T22:28:41.642Z,94142.94
2022-10-22T22:31:22.933Z,94137.44
2022-10-22T22:33:49.627Z,94124.97
2022-10-22T22:36:17.528Z,94125.53
2022-10-22T22:38:44.212Z,94129.00
2022-10-22T22:41:10.957Z,94117.09
2022-10-22T22:43:37.780Z,94122.50
2022-10-22T22:46:07.663Z,94112.38
2022-10-22T22:48:34.749Z,94116.28
2022-10-22T22:51:05.767Z,94118.56
2022-10-22T22:53:33.820Z,94125.75
2022-10-22T22:56:13.142Z,94129.16
2022-10-22T22:58:40.765Z,94123.78
2022-10-22T23:01:20.375Z,94124.44
2022-10-22T23:03:57.927Z,94130.91
2022-10-22T23:06:30.039Z,94138.66
2022-10-22T23:08:57.264Z,94134.91
2022-10-22T23:11:25.968Z,94132.50
2022-10-22T23:14:00.535Z,94144.16
2022-10-22T23:16:32.196Z,94131.03
2022-10-22T23:18:59.933Z,94127.78
2022-10-22T23:21:29.824Z,94130.59
2022-10-22T23:23:59.127Z,94135.97
2022-10-22T23:26:29.179Z,94140.28
2022-10-22T23:29:03.495Z,94145.28
2022-10-22T23:31:30.238Z,94151.91
2022-10-22T23:33:57.348Z,94155.44
2022-10-22T23:36:24.112Z,94160.69
2022-10-22T23:38:50.888Z,94150.47
2022-10-22T23:41:17.972Z,94162.50
2022-10-22T23:43:44.756Z,94160.91
2022-10-22T23:46:12.693Z,94163.06
2022-10-22T23:48:40.246Z,94161.50
2022-10-22T23:51:08.802Z,94158.25
2022-10-22T23:53:35.493Z,94152.03
2022-10-22T23:56:06.919Z,94157.63
2022-10-22T23:58:34.313Z,94162.75
